Portada
Imágenes satélite Pronóstico 15 díasClimaPredicción Marítima Ciclones Rayo AeropuertosFAQ Noticias Acerca
El tiempo : Europa África América del Norte América del Sur Asia Australia-Oceanía Otros
Idiomas Contacto

Humberside, Inglaterra

latitud: 53-35N, longitud: 000-21W, altitud: 31 m


METAR: EGNJ 261650Z 09009KT 9999 FEW025 24/16 Q1015
short-TAF: EGNJ 261359Z 2615/2621 VRB05KT 9999 FEW045
long-TAF: falta

Hora: 18:11 (17:11 UTC)

Observación

El informe se hizo hace 21 minutos, a las 16:50 UTC  
Viento 09 kt del este
Temperatura 24°C
Humedad 61%
Presión 1015 hPa
Visibilidad 10 km o más
Escasas nubes a una altura de 2500 ft

Cambiar las unidades

Pronóstico

El informe se hizo hace 2 horas y 56 minutos, a las 14:15 UTC  
Pronóstico válido del 26 a las 15 UTC al 26 a las 21 UTC
Viento 05 kt con dirección variable
Visibilidad 10 km o más
Escasas nubes a una altura de 4500 ft
La información que se ofrece en estas páginas está sujeta a una cláusula de exención de responsabilidad
El tiempo : Europa África América del Norte América del Sur Asia Australia-Oceanía Otros
Imágenes satélite Pronóstico 15 díasClimaPredicción Marítima Ciclones Rayo AeropuertosFAQ Idiomas Contacto Noticias Acerca